Time;durP1;ratioP1;P1;durP2;ratioP2;P2;SDS_P1;SDS_P2;PMS_P1;PMS_P2;Temp;Humidity;BMP_temperature;BMP_pressure;BME280_temperature;BME280_humidity;BME280_pressure;Samples;Min_cycle;Max_cycle;Signal;HPM_P1;HPM_P2
2022/05/31 00:01:46;;;;;;;;;;;;;;;;;;6241305;23;24046;-88
2022/05/31 00:04:12;;;;;;;;;;;;;;;;;;6239040;23;20827;-89
2022/05/31 00:06:39;;;;;;;;;;;;;;;;;;6239195;23;20338;-88
2022/05/31 00:09:04;;;;;;;;;;;;;;;;;;6239656;23;20350;-88
2022/05/31 00:11:30;;;;;;;;;;;;;;;;;;6237700;23;25102;-90
2022/05/31 00:13:56;;;;;;;;;;;;;;;;;;6238108;23;20326;-88
2022/05/31 00:16:22;;;;;;;;;;;;;;;;;;6240484;23;20032;-91
2022/05/31 00:18:48;;;;;;;;;;;;;;;;;;6236314;23;25127;-89
2022/05/31 00:21:14;;;;;;;;;;;;;;;;;;6237310;23;20372;-87
2022/05/31 00:23:40;;;;;;;;;;;;;;;;;;6237686;23;20330;-88
2022/05/31 00:26:06;;;;;;;;;;;;;;;;;;6238023;23;20357;-89
2022/05/31 00:28:32;;;;;;;;;;;;;;;;;;6238870;23;24046;-88
2022/05/31 00:30:58;;;;;;;;;;;;;;;;;;6237080;23;20430;-87
2022/05/31 00:33:23;;;;;;;;;;;;;;;;;;6237914;23;20641;-87
2022/05/31 00:35:49;;;;;;;;;;;;;;;;;;6236485;23;20393;-92
2022/05/31 00:38:15;;;;;;;;;;;;;;;;;;6239332;23;19900;-88
2022/05/31 00:40:41;;;;;;;;;;;;;;;;;;6237370;23;20457;-87
2022/05/31 00:43:07;;;;;;;;;;;;;;;;;;6239487;23;20798;-88
2022/05/31 00:45:33;;;;;;;;;;;;;;;;;;6240443;23;24064;-87
2022/05/31 00:47:59;;;;;;;;;;;;;;;;;;6238541;23;20333;-89
2022/05/31 00:50:25;;;;;;;;;;;;;;;;;;6238505;23;20700;-87
2022/05/31 00:52:51;;;;;;;;;;;;;;;;;;6238007;23;20328;-87
2022/05/31 00:55:17;;;;;;;;;;;;;;;;;;6237182;23;20377;-87
2022/05/31 00:57:43;;;;;;;;;;;;;;;;;;6238915;23;20024;-87
2022/05/31 01:00:12;;;;;;;;;;;;;;;;;;6238952;23;20416;-88
2022/05/31 01:02:38;;;;;;;;;;;;;;;;;;6239829;23;20349;-90
2022/05/31 01:05:04;;;;;;;;;;;;;;;;;;6239692;23;19965;-87
2022/05/31 01:07:30;;;;;;;;;;;;;;;;;;6238443;23;20335;-90
2022/05/31 01:09:56;;;;;;;;;;;;;;;;;;6238221;23;20346;-87
2022/05/31 01:12:22;;;;;;;;;;;;;;;;;;6237679;23;20679;-87
2022/05/31 01:14:47;;;;;;;;;;;;;;;;;;6238206;23;20028;-87
2022/05/31 01:17:13;;;;;;;;;;;;;;;;;;6238930;23;20341;-89
2022/05/31 01:20:22;;;;;;;;;;;;;;;;;;6239460;23;20659;-87
2022/05/31 01:22:28;;;;;;;;;;;;;;;;;;6229406;22;20373;-89
2022/05/31 01:24:54;;;;;;;;;;;;;;;;;;6237743;23;20368;-87
2022/05/31 01:27:20;;;;;;;;;;;;;;;;;;6237988;23;25116;-87
2022/05/31 01:29:46;;;;;;;;;;;;;;;;;;6237623;23;20339;-87
2022/05/31 01:32:12;;;;;;;;;;;;;;;;;;6240131;23;20037;-87
2022/05/31 01:34:38;;;;;;;;;;;;;;;;;;6239189;23;20343;-87
2022/05/31 01:37:04;;;;;;;;;;;;;;;;;;6239613;23;20728;-88
2022/05/31 01:39:30;;;;;;;;;;;;;;;;;;6240348;23;20362;-87
2022/05/31 01:41:56;;;;;;;;;;;;;;;;;;6240303;23;20341;-88
2022/05/31 01:44:22;;;;;;;;;;;;;;;;;;6241892;23;20328;-87
2022/05/31 01:46:48;;;;;;;;;;;;;;;;;;6239434;23;20343;-92
2022/05/31 01:49:14;;;;;;;;;;;;;;;;;;6241719;23;20526;-88
2022/05/31 01:51:40;;;;;;;;;;;;;;;;;;6241685;23;20019;-87
2022/05/31 01:54:06;;;;;;;;;;;;;;;;;;6237660;23;20730;-88
2022/05/31 01:56:32;;;;;;;;;;;;;;;;;;6239981;23;20375;-89
2022/05/31 01:58:58;;;;;;;;;;;;;;;;;;6240899;23;24079;-88
2022/05/31 02:01:24;;;;;;;;;;;;;;;;;;6240443;23;20355;-87
2022/05/31 02:03:50;;;;;;;;;;;;;;;;;;6239548;23;20354;-87
2022/05/31 02:06:15;;;;;;;;;;;;;;;;;;6239879;23;20356;-87
2022/05/31 02:08:41;;;;;;;;;;;;;;;;;;6241190;23;20348;-87
2022/05/31 02:11:07;;;;;;;;;;;;;;;;;;6240057;23;20365;-87
2022/05/31 02:13:34;;;;;;;;;;;;;;;;;;6240372;23;20191;-87
2022/05/31 02:15:59;;;;;;;;;;;;;;;;;;6238385;23;25118;-87
2022/05/31 02:19:15;;;;;;;;;;;;;;;;;;6237900;23;20346;-87
2022/05/31 02:21:11;;;;;;;;;;;;;;;;;;6240781;23;25101;-87
2022/05/31 02:23:37;;;;;;;;;;;;;;;;;;6256721;23;20005;-89
2022/05/31 02:26:03;;;;;;;;;;;;;;;;;;6257071;23;20358;-88
2022/05/31 02:28:29;;;;;;;;;;;;;;;;;;6262338;23;20419;-86
2022/05/31 02:30:55;;;;;;;;;;;;;;;;;;6253391;22;20398;-88
2022/05/31 02:33:21;;;;;;;;;;;;;;;;;;6246566;23;24035;-91
2022/05/31 02:35:47;;;;;;;;;;;;;;;;;;6239097;23;20361;-89
2022/05/31 02:38:13;;;;;;;;;;;;;;;;;;6239306;23;25120;-90
2022/05/31 02:40:39;;;;;;;;;;;;;;;;;;6240114;23;20220;-88
2022/05/31 02:43:05;;;;;;;;;;;;;;;;;;6240128;23;20848;-90
2022/05/31 02:45:31;;;;;;;;;;;;;;;;;;6238953;23;25085;-89
2022/05/31 02:47:57;;;;;;;;;;;;;;;;;;6240168;23;20477;-93
2022/05/31 02:50:23;;;;;;;;;;;;;;;;;;6241662;23;19899;-91
2022/05/31 02:52:49;;;;;;;;;;;;;;;;;;6239796;23;20326;-92
2022/05/31 02:55:16;;;;;;;;;;;;;;;;;;6239796;23;20389;-88
2022/05/31 02:57:42;;;;;;;;;;;;;;;;;;6242776;23;20684;-88
2022/05/31 03:00:08;;;;;;;;;;;;;;;;;;6239305;23;20430;-88
2022/05/31 03:02:35;;;;;;;;;;;;;;;;;;6239850;23;20050;-87
2022/05/31 03:05:01;;;;;;;;;;;;;;;;;;6238198;23;20349;-86
2022/05/31 03:07:27;;;;;;;;;;;;;;;;;;6241512;23;24073;-87
2022/05/31 03:09:53;;;;;;;;;;;;;;;;;;6238366;23;20371;-87
2022/05/31 03:12:19;;;;;;;;;;;;;;;;;;6241410;23;19974;-86
2022/05/31 03:14:45;;;;;;;;;;;;;;;;;;6240058;23;25100;-90
2022/05/31 03:17:11;;;;;;;;;;;;;;;;;;6241370;23;20018;-92
2022/05/31 03:19:36;;;;;;;;;;;;;;;;;;6238409;23;25099;-90
2022/05/31 03:22:02;;;;;;;;;;;;;;;;;;6239017;23;20360;-87
2022/05/31 03:24:28;;;;;;;;;;;;;;;;;;6239513;23;20201;-89
2022/05/31 03:26:54;;;;;;;;;;;;;;;;;;6236798;23;20683;-86
2022/05/31 03:29:23;;;;;;;;;;;;;;;;;;6241452;23;19903;-88
2022/05/31 03:31:49;;;;;;;;;;;;;;;;;;6239102;23;20799;-87
2022/05/31 03:34:15;;;;;;;;;;;;;;;;;;6239651;23;20345;-90
2022/05/31 03:36:41;;;;;;;;;;;;;;;;;;6240169;23;20021;-89
2022/05/31 03:39:09;;;;;;;;;;;;;;;;;;6239086;23;25137;-90
2022/05/31 03:41:35;;;;;;;;;;;;;;;;;;6240645;23;20104;-91
2022/05/31 03:44:10;;;;;;;;;;;;;;;;;;6237938;23;20476;-91
2022/05/31 03:46:36;;;;;;;;;;;;;;;;;;6241751;23;20113;-89
2022/05/31 03:49:02;;;;;;;;;;;;;;;;;;6237302;23;20812;-89
2022/05/31 03:51:30;;;;;;;;;;;;;;;;;;6240232;23;20010;-91
2022/05/31 03:53:59;;;;;;;;;;;;;;;;;;6238200;23;20857;-93
2022/05/31 03:56:25;;;;;;;;;;;;;;;;;;6236826;23;25145;-90
2022/05/31 03:58:51;;;;;;;;;;;;;;;;;;6237224;23;20350;-91
2022/05/31 04:01:17;;;;;;;;;;;;;;;;;;6239739;23;20337;-89
2022/05/31 04:03:43;;;;;;;;;;;;;;;;;;6236176;23;24052;-90
2022/05/31 04:06:09;;;;;;;;;;;;;;;;;;6235810;23;20405;-89
2022/05/31 04:08:35;;;;;;;;;;;;;;;;;;6238695;23;20024;-91
2022/05/31 04:11:01;;;;;;;;;;;;;;;;;;6237103;23;20443;-90
2022/05/31 04:13:28;;;;;;;;;;;;;;;;;;6236802;23;25067;-92
2022/05/31 04:15:54;;;;;;;;;;;;;;;;;;6237898;23;20456;-91
2022/05/31 04:18:20;;;;;;;;;;;;;;;;;;6239604;23;25084;-90
2022/05/31 04:20:46;;;;;;;;;;;;;;;;;;6240815;23;20010;-90
2022/05/31 04:25:57;;;;;;;;;;;;;;;;;;6238041;23;20349;-90
2022/05/31 04:28:22;;;;;;;;;;;;;;;;;;6239196;23;20370;-92
2022/05/31 04:30:48;;;;;;;;;;;;;;;;;;6238587;23;20652;-90
2022/05/31 04:33:14;;;;;;;;;;;;;;;;;;6237437;23;20804;-91
2022/05/31 04:35:43;;;;;;;;;;;;;;;;;;6239150;23;20393;-92
2022/05/31 04:38:08;;;;;;;;;;;;;;;;;;6237784;23;20355;-89
2022/05/31 04:40:34;;;;;;;;;;;;;;;;;;6241037;23;24061;-91
2022/05/31 04:43:00;;;;;;;;;;;;;;;;;;6239513;23;20371;-92
2022/05/31 04:45:28;;;;;;;;;;;;;;;;;;6236985;23;20333;-89
2022/05/31 04:47:54;;;;;;;;;;;;;;;;;;6240579;23;20214;-89
2022/05/31 04:50:20;;;;;;;;;;;;;;;;;;6237766;23;20366;-89
2022/05/31 04:52:46;;;;;;;;;;;;;;;;;;6238774;23;20385;-89
2022/05/31 04:55:12;;;;;;;;;;;;;;;;;;6238368;23;25124;-88
2022/05/31 04:57:38;;;;;;;;;;;;;;;;;;6239213;23;20384;-87
2022/05/31 05:00:03;;;;;;;;;;;;;;;;;;6248955;23;20352;-88
2022/05/31 05:02:29;;;;;;;;;;;;;;;;;;6250407;23;20351;-86
2022/05/31 05:04:55;;;;;;;;;;;;;;;;;;6251513;23;20360;-86
2022/05/31 05:07:21;;;;;;;;;;;;;;;;;;6246328;23;20810;-91
2022/05/31 05:09:47;;;;;;;;;;;;;;;;;;6237467;23;20409;-89
2022/05/31 05:12:13;;;;;;;;;;;;;;;;;;6238205;23;20473;-89
2022/05/31 05:14:39;;;;;;;;;;;;;;;;;;6242470;23;19970;-92
2022/05/31 05:17:05;;;;;;;;;;;;;;;;;;6239572;23;20459;-89
2022/05/31 05:19:32;;;;;;;;;;;;;;;;;;6239994;23;20365;-90
2022/05/31 05:21:58;;;;;;;;;;;;;;;;;;6240400;23;20340;-88
2022/05/31 05:24:24;;;;;;;;;;;;;;;;;;6242420;23;19900;-89
2022/05/31 05:26:50;;;;;;;;;;;;;;;;;;6241090;23;20343;-88
2022/05/31 05:32:00;;;;;;;;;;;;;;;;;;6239889;23;20389;-90
2022/05/31 05:34:26;;;;;;;;;;;;;;;;;;6240024;23;20337;-90
2022/05/31 05:36:52;;;;;;;;;;;;;;;;;;6241763;23;20038;-88
2022/05/31 05:39:18;;;;;;;;;;;;;;;;;;6238362;23;20346;-92
2022/05/31 05:41:44;;;;;;;;;;;;;;;;;;6240097;23;20667;-90
2022/05/31 05:44:10;;;;;;;;;;;;;;;;;;6241283;23;20210;-88
2022/05/31 05:46:35;;;;;;;;;;;;;;;;;;6240305;23;25080;-89
2022/05/31 05:49:01;;;;;;;;;;;;;;;;;;6239842;23;20329;-89
2022/05/31 05:51:27;;;;;;;;;;;;;;;;;;6238424;23;20541;-90
2022/05/31 05:53:53;;;;;;;;;;;;;;;;;;6240857;23;20837;-87
2022/05/31 05:56:19;;;;;;;;;;;;;;;;;;6240503;23;20386;-90
2022/05/31 05:58:45;;;;;;;;;;;;;;;;;;6238703;23;20352;-90
2022/05/31 06:01:11;;;;;;;;;;;;;;;;;;6239991;23;20401;-89
2022/05/31 06:03:37;;;;;;;;;;;;;;;;;;6240033;23;20330;-88
2022/05/31 06:06:03;;;;;;;;;;;;;;;;;;6240559;23;20280;-88
2022/05/31 06:08:29;;;;;;;;;;;;;;;;;;6240407;23;20348;-90
2022/05/31 06:10:55;;;;;;;;;;;;;;;;;;6240836;23;25079;-91
2022/05/31 06:13:21;;;;;;;;;;;;;;;;;;6241285;23;20401;-90
2022/05/31 06:15:47;;;;;;;;;;;;;;;;;;6238375;23;20446;-89
2022/05/31 06:18:13;;;;;;;;;;;;;;;;;;6242319;23;20392;-90
2022/05/31 06:20:39;;;;;;;;;;;;;;;;;;6238155;23;25106;-90
2022/05/31 06:23:05;;;;;;;;;;;;;;;;;;6239017;23;20366;-89
2022/05/31 06:25:30;;;;;;;;;;;;;;;;;;6239635;23;25132;-89
2022/05/31 06:27:56;;;;;;;;;;;;;;;;;;6240406;23;20405;-88
2022/05/31 06:30:22;;;;;;;;;;;;;;;;;;6239177;23;20439;-89
2022/05/31 06:32:51;;;;;;;;;;;;;;;;;;6239563;23;25085;-89
2022/05/31 06:35:17;;;;;;;;;;;;;;;;;;6237813;23;25083;-89
2022/05/31 06:37:43;;;;;;;;;;;;;;;;;;6239627;23;20347;-89
2022/05/31 06:40:09;;;;;;;;;;;;;;;;;;6239680;23;20375;-89
2022/05/31 06:42:35;;;;;;;;;;;;;;;;;;6237779;23;20394;-92
2022/05/31 06:45:01;;;;;;;;;;;;;;;;;;6240006;23;20350;-90
2022/05/31 06:47:27;;;;;;;;;;;;;;;;;;6239008;23;25082;-90
2022/05/31 06:49:53;;;;;;;;;;;;;;;;;;6240381;23;25133;-90
2022/05/31 06:57:48;;;;;;;;;;;;;;;;;;6239266;23;20367;-89
2022/05/31 07:00:18;;;;;;;;;;;;;;;;;;6237754;23;20372;-90
2022/05/31 07:02:44;;;;;;;;;;;;;;;;;;6239938;23;20345;-90
2022/05/31 07:05:10;;;;;;;;;;;;;;;;;;6239581;23;20418;-88
2022/05/31 07:07:36;;;;;;;;;;;;;;;;;;6239120;23;20433;-91
2022/05/31 07:10:03;;;;;;;;;;;;;;;;;;6240402;23;19978;-89
2022/05/31 07:12:29;;;;;;;;;;;;;;;;;;6240570;23;20339;-89
2022/05/31 07:14:55;;;;;;;;;;;;;;;;;;6240712;23;20379;-91
2022/05/31 07:17:21;;;;;;;;;;;;;;;;;;6239737;23;20344;-91
2022/05/31 07:19:47;;;;;;;;;;;;;;;;;;6242321;23;19934;-89
2022/05/31 07:22:13;;;;;;;;;;;;;;;;;;6239777;23;25123;-90
2022/05/31 07:24:39;;;;;;;;;;;;;;;;;;6239290;23;25132;-89
2022/05/31 07:27:05;;;;;;;;;;;;;;;;;;6239403;23;20343;-90
2022/05/31 07:29:31;;;;;;;;;;;;;;;;;;6240100;23;20338;-89
2022/05/31 07:31:57;;;;;;;;;;;;;;;;;;6239958;23;25078;-89
2022/05/31 07:34:26;;;;;;;;;;;;;;;;;;6238893;23;25074;-90
2022/05/31 07:36:52;;;;;;;;;;;;;;;;;;6260712;22;20395;-88
2022/05/31 07:39:17;;;;;;;;;;;;;;;;;;6260834;23;20325;-89
2022/05/31 07:41:45;;;;;;;;;;;;;;;;;;6263541;22;20354;-90
2022/05/31 07:44:11;;;;;;;;;;;;;;;;;;6194893;23;20026;-91
2022/05/31 07:46:37;;;;;;;;;;;;;;;;;;6183076;23;25076;-90
2022/05/31 07:49:03;;;;;;;;;;;;;;;;;;6182313;23;20340;-91
2022/05/31 07:51:29;;;;;;;;;;;;;;;;;;6210025;23;20380;-89
2022/05/31 07:53:55;;;;;;;;;;;;;;;;;;6184887;23;20229;-91
2022/05/31 07:56:21;;;;;;;;;;;;;;;;;;6182708;23;20893;-90
2022/05/31 07:58:46;;;;;;;;;;;;;;;;;;6211374;23;19900;-93
2022/05/31 08:01:13;;;;;;;;;;;;;;;;;;6182558;23;20343;-91
2022/05/31 08:03:39;;;;;;;;;;;;;;;;;;6182433;23;20438;-91
2022/05/31 08:06:06;;;;;;;;;;;;;;;;;;6211207;23;20015;-90
2022/05/31 08:08:32;;;;;;;;;;;;;;;;;;6210226;23;25065;-91
2022/05/31 08:10:58;;;;;;;;;;;;;;;;;;6209992;23;20376;-90
2022/05/31 08:13:24;;;;;;;;;;;;;;;;;;6182646;23;25117;-91
2022/05/31 08:15:51;;;;;;;;;;;;;;;;;;6184396;23;20486;-90
2022/05/31 08:18:17;;;;;;;;;;;;;;;;;;6183036;23;20465;-93
2022/05/31 08:20:43;;;;;;;;;;;;;;;;;;6182823;23;20363;-90
2022/05/31 08:23:08;;;;;;;;;;;;;;;;;;6209259;23;25071;-91
2022/05/31 08:25:36;;;;;;;;;;;;;;;;;;6182291;23;20351;-92
2022/05/31 08:28:02;;;;;;;;;;;;;;;;;;6211885;23;24063;-94
2022/05/31 08:30:27;;;;;;;;;;;;;;;;;;6183084;23;20452;-91
2022/05/31 08:32:53;;;;;;;;;;;;;;;;;;6182834;23;20584;-91
2022/05/31 08:35:19;;;;;;;;;;;;;;;;;;6209480;23;20378;-94
2022/05/31 08:37:45;;;;;;;;;;;;;;;;;;6185189;23;20206;-91
2022/05/31 08:40:11;;;;;;;;;;;;;;;;;;6183127;23;20358;-93
2022/05/31 08:42:37;;;;;;;;;;;;;;;;;;6199114;23;20769;-92
2022/05/31 08:45:03;;;;;;;;;;;;;;;;;;6240566;23;20861;-94
2022/05/31 08:47:31;;;;;;;;;;;;;;;;;;6239971;23;20411;-92
2022/05/31 08:52:49;;;;;;;;;;;;;;;;;;6215374;23;25105;-90
2022/05/31 08:58:00;;;;;;;;;;;;;;;;;;6242369;23;24105;-90
2022/05/31 09:00:26;;;;;;;;;;;;;;;;;;6239651;23;25089;-93
2022/05/31 09:02:51;;;;;;;;;;;;;;;;;;6240077;23;19919;-92
2022/05/31 09:05:17;;;;;;;;;;;;;;;;;;6238753;23;20343;-92
2022/05/31 09:07:43;;;;;;;;;;;;;;;;;;6240373;23;20357;-91
2022/05/31 09:10:09;;;;;;;;;;;;;;;;;;6240636;23;20024;-90
2022/05/31 09:12:36;;;;;;;;;;;;;;;;;;6240806;23;25068;-91
2022/05/31 09:15:02;;;;;;;;;;;;;;;;;;6240329;23;25074;-91
2022/05/31 09:17:28;;;;;;;;;;;;;;;;;;6241547;23;20017;-91
2022/05/31 09:19:54;;;;;;;;;;;;;;;;;;6237536;23;20357;-89
2022/05/31 09:22:20;;;;;;;;;;;;;;;;;;6237594;23;20338;-91
2022/05/31 09:24:46;;;;;;;;;;;;;;;;;;6239204;23;25081;-89
2022/05/31 09:27:12;;;;;;;;;;;;;;;;;;6241763;23;20263;-90
2022/05/31 09:29:38;;;;;;;;;;;;;;;;;;6238155;23;20669;-91
2022/05/31 09:32:04;;;;;;;;;;;;;;;;;;6241105;23;20320;-92
2022/05/31 09:34:31;;;;;;;;;;;;;;;;;;6238385;23;25107;-91
2022/05/31 09:36:57;;;;;;;;;;;;;;;;;;6237304;23;20370;-89
2022/05/31 09:39:23;;;;;;;;;;;;;;;;;;6237145;23;20359;-90
2022/05/31 09:41:48;;;;;;;;;;;;;;;;;;6237639;23;20362;-89
2022/05/31 09:44:15;;;;;;;;;;;;;;;;;;6239541;23;20349;-90
2022/05/31 09:46:44;;;;;;;;;;;;;;;;;;6239591;23;25088;-91
2022/05/31 09:49:10;;;;;;;;;;;;;;;;;;6238074;23;20375;-91
2022/05/31 09:51:36;;;;;;;;;;;;;;;;;;6238985;23;20368;-90
2022/05/31 09:59:34;;;;;;;;;;;;;;;;;;6240979;23;20379;-91
2022/05/31 10:02:02;;;;;;;;;;;;;;;;;;6238950;23;20337;-91
2022/05/31 10:04:28;;;;;;;;;;;;;;;;;;6238785;23;20705;-91
2022/05/31 10:06:54;;;;;;;;;;;;;;;;;;6238832;23;20778;-90
2022/05/31 10:09:23;;;;;;;;;;;;;;;;;;6238758;23;20364;-90
2022/05/31 10:11:49;;;;;;;;;;;;;;;;;;6259563;22;20025;-92
2022/05/31 10:14:15;;;;;;;;;;;;;;;;;;6265848;23;20346;-89
2022/05/31 10:16:42;;;;;;;;;;;;;;;;;;6267671;22;20357;-92
2022/05/31 10:19:08;;;;;;;;;;;;;;;;;;6253729;22;20795;-88
2022/05/31 10:21:34;;;;;;;;;;;;;;;;;;6240030;23;20350;-90
2022/05/31 10:24:09;;;;;;;;;;;;;;;;;;6240617;23;20359;-91
2022/05/31 10:26:38;;;;;;;;;;;;;;;;;;6242608;23;20200;-91
2022/05/31 10:29:14;;;;;;;;;;;;;;;;;;;;;
2022/05/31 10:31:40;;;;;;;;;;;;;;;;;;6242149;23;20438;-91
2022/05/31 10:34:15;;;;;;;;;;;;;;;;;;6241974;23;20354;-91
2022/05/31 10:39:27;;;;;;;;;;;;;;;;;;6230102;23;20333;-90
2022/05/31 10:41:55;;;;;;;;;;;;;;;;;;6242475;23;20224;-91
2022/05/31 10:44:21;;;;;;;;;;;;;;;;;;6241230;23;20866;-90
2022/05/31 10:46:55;;;;;;;;;;;;;;;;;;6238910;23;20345;-92
2022/05/31 10:49:21;;;;;;;;;;;;;;;;;;6239587;23;20363;-91
2022/05/31 10:51:47;;;;;;;;;;;;;;;;;;6239786;23;20764;-92
2022/05/31 10:54:13;;;;;;;;;;;;;;;;;;6237803;23;25137;-92
2022/05/31 10:56:39;;;;;;;;;;;;;;;;;;6239781;23;20875;-92
2022/05/31 10:59:05;;;;;;;;;;;;;;;;;;6242315;23;20334;-90
2022/05/31 11:01:34;;;;;;;;;;;;;;;;;;6240991;23;20398;-92
2022/05/31 11:04:02;;;;;;;;;;;;;;;;;;6241483;23;20666;-92
2022/05/31 11:06:38;;;;;;;;;;;;;;;;;;6238952;23;20388;-92
2022/05/31 11:11:51;;;;;;;;;;;;;;;;;;6240131;23;20370;-92
2022/05/31 11:14:22;;;;;;;;;;;;;;;;;;6240706;23;19906;-92
2022/05/31 11:16:48;;;;;;;;;;;;;;;;;;6239325;23;25070;-92
2022/05/31 11:19:33;;;;;;;;;;;;;;;;;;;;;
2022/05/31 11:22:01;;;;;;;;;;;;;;;;;;6240747;23;20449;-92
2022/05/31 11:24:27;;;;;;;;;;;;;;;;;;6240523;23;20810;-89
2022/05/31 11:27:14;;;;;;;;;;;;;;;;;;6239323;23;20370;-92
2022/05/31 11:29:51;;;;;;;;;;;;;;;;;;6240924;22;25084;-94
2022/05/31 11:32:24;;;;;;;;;;;;;;;;;;6238977;23;20357;-92
2022/05/31 11:34:51;;;;;;;;;;;;;;;;;;6240630;23;20323;-90
2022/05/31 11:37:17;;;;;;;;;;;;;;;;;;6240195;23;20359;-90
2022/05/31 11:39:43;;;;;;;;;;;;;;;;;;6241073;23;20726;-91
2022/05/31 11:42:30;;;;;;;;;;;;;;;;;;6243818;23;20268;-92
2022/05/31 11:44:55;;;;;;;;;;;;;;;;;;6240219;22;20343;-92
2022/05/31 11:47:21;;;;;;;;;;;;;;;;;;6243337;23;20411;-90
2022/05/31 11:50:08;;;;;;;;;;;;;;;;;;6242443;23;20365;-93
2022/05/31 11:52:33;;;;;;;;;;;;;;;;;;6241820;22;20177;-95
2022/05/31 11:58:05;;;;;;;;;;;;;;;;;;6242849;23;20349;-94
2022/05/31 12:00:30;;;;;;;;;;;;;;;;;;6242159;22;20355;-93
2022/05/31 12:02:56;;;;;;;;;;;;;;;;;;6247291;23;20339;-93
2022/05/31 12:05:25;;;;;;;;;;;;;;;;;;6243460;23;20358;-94
2022/05/31 12:07:51;;;;;;;;;;;;;;;;;;6242710;23;19927;-90
2022/05/31 12:10:17;;;;;;;;;;;;;;;;;;6241344;23;20355;-90
2022/05/31 12:12:44;;;;;;;;;;;;;;;;;;6242199;23;25068;-91
2022/05/31 12:15:20;;;;;;;;;;;;;;;;;;;;;
2022/05/31 12:17:46;;;;;;;;;;;;;;;;;;6240538;23;20771;-91
2022/05/31 12:20:12;;;;;;;;;;;;;;;;;;6239045;23;20391;-91
2022/05/31 12:22:56;;;;;;;;;;;;;;;;;;6240541;23;19937;-92
2022/05/31 12:25:24;;;;;;;;;;;;;;;;;;6239752;23;20381;-92
2022/05/31 12:27:52;;;;;;;;;;;;;;;;;;6242456;23;25122;-94
2022/05/31 12:30:21;;;;;;;;;;;;;;;;;;6243776;23;20021;-95
2022/05/31 12:32:47;;;;;;;;;;;;;;;;;;6243233;23;19906;-91
2022/05/31 12:35:13;;;;;;;;;;;;;;;;;;6242614;23;20393;-95
2022/05/31 12:37:39;;;;;;;;;;;;;;;;;;6239731;23;20422;-90
2022/05/31 12:40:05;;;;;;;;;;;;;;;;;;6239891;23;20541;-92
2022/05/31 12:42:31;;;;;;;;;;;;;;;;;;6240211;23;20342;-91
2022/05/31 12:45:04;;;;;;;;;;;;;;;;;;6241698;23;20196;-92
2022/05/31 12:47:31;;;;;;;;;;;;;;;;;;6250617;22;25071;-92
2022/05/31 12:50:04;;;;;;;;;;;;;;;;;;6267100;22;20366;-91
2022/05/31 12:55:31;;;;;;;;;;;;;;;;;;6253892;23;20451;-91
2022/05/31 13:00:42;;;;;;;;;;;;;;;;;;6240928;23;20334;-93
2022/05/31 13:03:13;;;;;;;;;;;;;;;;;;6239635;23;20369;-91
2022/05/31 13:05:39;;;;;;;;;;;;;;;;;;6237818;23;25388;-92
2022/05/31 13:08:07;;;;;;;;;;;;;;;;;;6238873;23;25067;-92
2022/05/31 13:21:33;;;;;;;;;;;;;;;;;;6240515;23;20364;-92
2022/05/31 13:23:59;;;;;;;;;;;;;;;;;;6238378;23;20805;-91
2022/05/31 13:26:28;;;;;;;;;;;;;;;;;;6238944;23;20656;-92
2022/05/31 13:28:54;;;;;;;;;;;;;;;;;;6239333;23;20328;-92
2022/05/31 13:31:21;;;;;;;;;;;;;;;;;;6241156;23;24044;-95
2022/05/31 13:33:54;;;;;;;;;;;;;;;;;;6240510;23;20349;-93
2022/05/31 13:36:20;;;;;;;;;;;;;;;;;;6241948;23;20370;-92
2022/05/31 13:38:46;;;;;;;;;;;;;;;;;;6240974;23;20344;-90
2022/05/31 13:41:12;;;;;;;;;;;;;;;;;;6242596;23;24060;-91
2022/05/31 13:43:38;;;;;;;;;;;;;;;;;;6240994;23;20341;-93
2022/05/31 13:46:04;;;;;;;;;;;;;;;;;;6241662;23;20346;-90
2022/05/31 13:48:30;;;;;;;;;;;;;;;;;;6242780;23;20334;-90
2022/05/31 13:50:59;;;;;;;;;;;;;;;;;;6243532;23;19927;-94
2022/05/31 13:53:25;;;;;;;;;;;;;;;;;;6241351;23;20336;-96
2022/05/31 13:55:51;;;;;;;;;;;;;;;;;;6241239;23;20439;-90
2022/05/31 13:58:17;;;;;;;;;;;;;;;;;;6244144;23;20013;-90
2022/05/31 14:00:43;;;;;;;;;;;;;;;;;;6240979;23;20334;-91
2022/05/31 14:03:09;;;;;;;;;;;;;;;;;;6241934;23;20343;-91
2022/05/31 14:05:35;;;;;;;;;;;;;;;;;;6242108;23;20456;-91
2022/05/31 14:08:01;;;;;;;;;;;;;;;;;;6240522;23;20345;-91
2022/05/31 14:13:13;;;;;;;;;;;;;;;;;;6233648;23;20001;-92
2022/05/31 14:15:52;;;;;;;;;;;;;;;;;;;;;
2022/05/31 14:18:19;;;;;;;;;;;;;;;;;;6241757;23;20902;-90
2022/05/31 14:20:45;;;;;;;;;;;;;;;;;;6242572;23;24081;-91
2022/05/31 14:23:13;;;;;;;;;;;;;;;;;;6239928;23;20384;-92
2022/05/31 14:25:39;;;;;;;;;;;;;;;;;;6239741;23;20359;-89
2022/05/31 14:28:11;;;;;;;;;;;;;;;;;;6241536;23;20810;-92
2022/05/31 14:30:39;;;;;;;;;;;;;;;;;;6239251;23;20381;-90
2022/05/31 14:33:06;;;;;;;;;;;;;;;;;;6240880;23;24044;-88
2022/05/31 14:35:32;;;;;;;;;;;;;;;;;;6238790;23;20421;-91
2022/05/31 14:37:58;;;;;;;;;;;;;;;;;;6240390;23;20448;-89
2022/05/31 14:40:24;;;;;;;;;;;;;;;;;;6240345;23;20197;-90
2022/05/31 14:42:50;;;;;;;;;;;;;;;;;;6240939;23;25069;-95
2022/05/31 14:45:16;;;;;;;;;;;;;;;;;;6239076;23;20351;-91
2022/05/31 14:47:42;;;;;;;;;;;;;;;;;;6238023;23;25070;-89
2022/05/31 14:50:08;;;;;;;;;;;;;;;;;;6240854;23;20194;-90
2022/05/31 14:52:34;;;;;;;;;;;;;;;;;;6238837;23;25080;-91
2022/05/31 14:55:03;;;;;;;;;;;;;;;;;;6239571;23;20378;-90
2022/05/31 14:58:37;;;;;;;;;;;;;;;;;;6239810;23;20355;-91
2022/05/31 15:00:18;;;;;;;;;;;;;;;;;;6239349;23;20720;-91
2022/05/31 15:02:44;;;;;;;;;;;;;;;;;;6242477;23;20017;-89
2022/05/31 15:05:09;;;;;;;;;;;;;;;;;;6239819;23;20685;-91
2022/05/31 15:07:35;;;;;;;;;;;;;;;;;;6239864;23;20348;-90
2022/05/31 15:10:01;;;;;;;;;;;;;;;;;;6238536;23;20743;-94
2022/05/31 15:20:41;;;;;;;;;;;;;;;;;;6239763;23;20361;-88
2022/05/31 15:23:07;;;;;;;;;;;;;;;;;;6246006;23;20344;-86
2022/05/31 15:25:33;;;;;;;;;;;;;;;;;;6237857;23;20356;-87
2022/05/31 15:27:59;;;;;;;;;;;;;;;;;;6238757;23;20676;-86
2022/05/31 15:30:25;;;;;;;;;;;;;;;;;;6250303;23;24043;-86
2022/05/31 15:32:51;;;;;;;;;;;;;;;;;;6242562;23;20341;-87
2022/05/31 15:35:18;;;;;;;;;;;;;;;;;;6240560;23;20695;-87
2022/05/31 15:37:44;;;;;;;;;;;;;;;;;;6238634;23;20342;-86
2022/05/31 15:40:10;;;;;;;;;;;;;;;;;;6240413;23;19906;-85
2022/05/31 15:42:37;;;;;;;;;;;;;;;;;;6239212;23;20393;-92
2022/05/31 15:45:03;;;;;;;;;;;;;;;;;;6239212;23;20396;-90
2022/05/31 15:47:29;;;;;;;;;;;;;;;;;;6235968;23;20684;-90
2022/05/31 15:49:55;;;;;;;;;;;;;;;;;;6236562;23;25069;-89
2022/05/31 15:52:21;;;;;;;;;;;;;;;;;;6236733;23;20802;-89
2022/05/31 15:54:55;;;;;;;;;;;;;;;;;;6237667;23;25053;-93
2022/05/31 15:57:21;;;;;;;;;;;;;;;;;;6237004;23;20413;-90
2022/05/31 15:59:47;;;;;;;;;;;;;;;;;;6236504;23;25071;-93
2022/05/31 16:02:12;;;;;;;;;;;;;;;;;;6238399;23;20808;-89
2022/05/31 16:04:39;;;;;;;;;;;;;;;;;;6238182;23;24055;-90
2022/05/31 16:07:08;;;;;;;;;;;;;;;;;;6238533;23;25084;-90
2022/05/31 16:09:34;;;;;;;;;;;;;;;;;;6236829;23;20331;-92
2022/05/31 16:11:59;;;;;;;;;;;;;;;;;;6240969;23;20014;-91
2022/05/31 16:14:35;;;;;;;;;;;;;;;;;;;;;
2022/05/31 16:17:08;;;;;;;;;;;;;;;;;;6237903;23;20476;-93
2022/05/31 16:19:41;;;;;;;;;;;;;;;;;;6240283;23;20028;-91
2022/05/31 16:22:15;;;;;;;;;;;;;;;;;;6240438;23;20198;-93
2022/05/31 16:24:41;;;;;;;;;;;;;;;;;;6240259;23;20010;-95
2022/05/31 16:27:07;;;;;;;;;;;;;;;;;;6242014;23;20048;-89
2022/05/31 16:29:35;;;;;;;;;;;;;;;;;;6236527;23;20334;-93
2022/05/31 16:32:01;;;;;;;;;;;;;;;;;;6240211;23;20112;-94
2022/05/31 16:42:52;;;;;;;;;;;;;;;;;;;;;
2022/05/31 16:45:18;;;;;;;;;;;;;;;;;;6236151;23;20448;-92
2022/05/31 16:48:03;;;;;;;;;;;;;;;;;;;;;
2022/05/31 17:14:26;;;;;;;;;;;;;;;;;;6274147;22;20844;-93
2022/05/31 17:25:13;;;;;;;;;;;;;;;;;;6131801;23;20362;-92
2022/05/31 17:27:39;;;;;;;;;;;;;;;;;;6156202;23;24062;-92
2022/05/31 17:30:08;;;;;;;3.88;1.42;;;;;;;;;;6152968;23;20379;-92
2022/05/31 17:35:23;;;;;;;2.28;1.40;;;;;;;;;;6160252;23;20021;-91
2022/05/31 17:37:52;;;;;;;4.03;1.40;;;;;;;;;;6179303;23;20028;-89
2022/05/31 17:40:30;;;;;;;3.90;1.50;;;;;;;;;;6154409;23;20005;-93
2022/05/31 17:43:16;;;;;;;4.40;1.85;;;;;;;;;;6153767;23;20009;-93
2022/05/31 17:46:22;;;;;;;3.78;1.42;;;;;;;;;;6160407;23;20047;-93
2022/05/31 17:48:47;;;;;;;4.80;1.33;;;;;;;;;;6179274;23;20400;-91
2022/05/31 17:51:50;;;;;;;2.50;1.45;;;;;;;;;;6155471;23;20009;-93
2022/05/31 17:54:33;;;;;;;3.35;1.38;;;;;;;;;;6155309;23;20020;-92
2022/05/31 17:57:00;;;;;;;3.42;1.20;;;;;;;;;;6157566;23;20013;-93
2022/05/31 17:59:52;;;;;;;3.08;1.92;;;;;;;;;;6204472;22;20000;-95
2022/05/31 18:05:25;;;;;;;;;;;;;;;;;;;;;
2022/05/31 18:07:51;;;;;;;3.55;1.33;;;;;;;;;;6285440;22;20003;-91
2022/05/31 18:10:24;;;;;;;3.17;1.48;;;;;;;;;;6256270;22;20018;-93
2022/05/31 18:13:37;;;;;;;4.80;1.70;;;;;;;;;;6248858;22;20087;-94
2022/05/31 18:16:39;;;;;;;;;;;;;;;;;;;;;
2022/05/31 18:47:16;;;;;;;;;;;;;;;;;;;;;
2022/05/31 18:49:54;;;;;;;2.15;1.20;;;;;;;;;;6178086;23;20083;-93
2022/05/31 18:52:51;;;;;;;;;;;;;;;;;;;;;
2022/05/31 18:55:58;;;;;;;2.40;1.05;;;;;;;;;;6091700;23;20085;-92
2022/05/31 19:10:46;;;;;;;3.35;1.73;;;;;;;;;;6020365;23;20023;-92
2022/05/31 19:13:40;;;;;;;3.67;1.60;;;;;;;;;;6095924;23;20017;-93
2022/05/31 19:16:30;;;;;;;;;;;;;;;;;;;;;
2022/05/31 19:19:16;;;;;;;2.60;1.40;;;;;;;;;;6273961;22;20079;-91